createdAt,value
2024-02-12T00:00:45.867Z,78.60
2024-02-12T00:01:49.222Z,78.62
2024-02-12T00:02:52.423Z,78.67
2024-02-12T00:03:55.218Z,78.68
2024-02-12T00:04:58.255Z,78.62
2024-02-12T00:06:01.245Z,78.60
2024-02-12T00:07:04.268Z,78.55
2024-02-12T00:08:10.304Z,78.67
2024-02-12T00:09:14.774Z,78.36
2024-02-12T00:10:17.704Z,78.46
2024-02-12T00:11:21.260Z,78.46
2024-02-12T00:12:25.595Z,78.27
2024-02-12T00:13:29.412Z,78.19
2024-02-12T00:14:32.249Z,78.19
2024-02-12T00:15:35.472Z,78.31
2024-02-12T00:16:40.534Z,78.32
2024-02-12T00:17:43.964Z,78.35
2024-02-12T00:18:49.070Z,78.41
2024-02-12T00:19:52.446Z,78.43
2024-02-12T00:20:55.298Z,78.39
2024-02-12T00:21:59.363Z,78.57
2024-02-12T00:23:05.592Z,78.58
2024-02-12T00:24:09.162Z,78.61
2024-02-12T00:25:15.472Z,78.62
2024-02-12T00:26:18.329Z,78.69
2024-02-12T00:27:22.964Z,78.73
2024-02-12T00:28:28.117Z,78.75
2024-02-12T00:29:33.420Z,78.76
2024-02-12T00:30:37.889Z,78.78
2024-02-12T00:31:41.423Z,78.81
2024-02-12T00:32:47.117Z,78.90
2024-02-12T00:33:51.688Z,78.96
2024-02-12T00:34:56.480Z,78.87
2024-02-12T00:36:01.583Z,78.87
2024-02-12T00:37:05.849Z,78.85
2024-02-12T00:38:09.923Z,78.78
2024-02-12T00:39:12.745Z,78.80
2024-02-12T00:40:16.986Z,78.79
2024-02-12T00:41:22.939Z,78.76
2024-02-12T00:42:26.497Z,78.85
2024-02-12T00:43:29.358Z,78.86
2024-02-12T00:44:36.100Z,78.87
2024-02-12T00:45:38.979Z,78.86
2024-02-12T00:46:41.759Z,78.81
2024-02-12T00:47:44.632Z,78.76
2024-02-12T00:48:50.155Z,78.75
2024-02-12T00:49:53.007Z,78.71
2024-02-12T00:50:55.791Z,78.71
2024-02-12T00:51:58.563Z,78.81
2024-02-12T00:53:01.445Z,78.81
2024-02-12T00:54:04.326Z,78.81
2024-02-12T00:55:09.213Z,78.74
2024-02-12T00:56:11.908Z,78.84
2024-02-12T00:57:14.764Z,78.91
2024-02-12T00:58:17.623Z,78.92
2024-02-12T00:59:20.856Z,78.94
2024-02-12T01:00:25.337Z,79.07
2024-02-12T01:01:28.659Z,78.95
2024-02-12T01:02:32.642Z,78.81
2024-02-12T01:03:38.498Z,78.71
2024-02-12T01:04:41.451Z,78.67
2024-02-12T01:05:46.430Z,78.65
2024-02-12T01:06:49.912Z,78.56
2024-02-12T01:07:52.709Z,78.54
2024-02-12T01:08:55.919Z,78.46
2024-02-12T01:09:58.707Z,78.44
2024-02-12T01:11:01.463Z,78.63
2024-02-12T01:12:05.942Z,78.68
2024-02-12T01:13:08.964Z,78.62
2024-02-12T01:14:12.055Z,78.66
2024-02-12T01:15:14.997Z,78.73
2024-02-12T01:16:33.710Z,78.82
2024-02-12T01:17:47.106Z,78.87
2024-02-12T01:19:27.468Z,78.82
2024-02-12T01:20:30.784Z,78.74
2024-02-12T01:21:36.244Z,78.75
2024-02-12T01:22:46.080Z,78.68
2024-02-12T01:23:50.482Z,78.68
2024-02-12T01:24:57.464Z,78.70
2024-02-12T01:26:00.574Z,78.66
2024-02-12T01:27:03.651Z,78.69
2024-02-12T01:28:08.750Z,78.58
2024-02-12T01:29:11.608Z,78.59
2024-02-12T01:30:15.598Z,78.50
2024-02-12T01:31:21.929Z,78.38
2024-02-12T01:32:26.484Z,78.32
2024-02-12T01:33:31.471Z,78.36
2024-02-12T01:34:35.285Z,78.48
2024-02-12T01:35:40.635Z,78.49
2024-02-12T01:36:43.993Z,78.46
2024-02-12T01:37:46.732Z,78.47
2024-02-12T01:38:49.683Z,78.55
2024-02-12T01:39:52.497Z,78.61
2024-02-12T01:40:57.759Z,78.65
2024-02-12T01:42:00.729Z,78.65
2024-02-12T01:43:07.059Z,78.67
2024-02-12T01:44:10.390Z,78.77
2024-02-12T01:45:17.323Z,78.85
2024-02-12T01:46:22.209Z,78.88
2024-02-12T01:47:25.785Z,78.94
2024-02-12T01:48:29.455Z,78.85
2024-02-12T01:49:32.343Z,78.73
2024-02-12T01:50:35.818Z,78.72
2024-02-12T01:51:39.012Z,78.73
2024-02-12T01:52:43.557Z,78.78
2024-02-12T01:53:49.978Z,78.82
2024-02-12T01:54:54.808Z,78.76
2024-02-12T01:55:57.768Z,78.73
2024-02-12T01:57:02.419Z,78.77
2024-02-12T01:58:06.490Z,78.76
2024-02-12T01:59:17.464Z,78.73
2024-02-12T02:00:24.034Z,78.73
2024-02-12T02:01:26.834Z,78.74
2024-02-12T02:02:29.686Z,78.74
2024-02-12T02:03:32.732Z,78.78
2024-02-12T02:04:37.468Z,78.74
2024-02-12T02:05:40.615Z,78.70
2024-02-12T02:06:55.076Z,78.68
2024-02-12T02:07:59.193Z,78.67
2024-02-12T02:09:02.572Z,78.72
2024-02-12T02:10:08.243Z,78.71
2024-02-12T02:11:13.003Z,78.73
2024-02-12T02:12:16.852Z,78.72
2024-02-12T02:13:19.860Z,78.71
2024-02-12T02:14:22.869Z,78.76
2024-02-12T02:15:27.214Z,78.82
2024-02-12T02:16:29.965Z,78.82
2024-02-12T02:17:32.909Z,78.78
2024-02-12T02:18:36.018Z,78.81
2024-02-12T02:19:40.610Z,78.80
2024-02-12T02:20:43.385Z,78.78
2024-02-12T02:21:46.240Z,78.80
2024-02-12T02:22:50.389Z,78.83
2024-02-12T02:24:01.500Z,78.84
2024-02-12T02:25:04.287Z,78.84
2024-02-12T02:26:07.142Z,78.80
2024-02-12T02:27:10.655Z,78.81
2024-02-12T02:28:14.227Z,78.79
2024-02-12T02:29:17.497Z,78.79
2024-02-12T02:30:22.075Z,78.75
2024-02-12T02:31:24.890Z,78.80
2024-02-12T02:32:28.726Z,78.86
2024-02-12T02:33:32.068Z,78.91
2024-02-12T02:34:36.296Z,78.90
2024-02-12T02:35:39.305Z,78.97
2024-02-12T02:36:49.374Z,78.94
2024-02-12T02:37:52.212Z,78.92
2024-02-12T02:38:56.151Z,78.92
2024-02-12T02:39:58.988Z,78.86
2024-02-12T02:41:01.745Z,78.83
2024-02-12T02:42:06.350Z,78.82
2024-02-12T02:43:09.881Z,78.85
2024-02-12T02:44:12.676Z,78.96
2024-02-12T02:45:16.731Z,78.97
2024-02-12T02:46:31.704Z,78.93
2024-02-12T02:47:34.991Z,78.94
2024-02-12T02:48:37.957Z,78.93
2024-02-12T02:49:40.838Z,78.92
2024-02-12T02:50:43.772Z,78.82
2024-02-12T02:51:46.512Z,78.83
2024-02-12T02:52:49.346Z,78.78
2024-02-12T02:53:52.104Z,78.77
2024-02-12T02:54:57.770Z,78.73
2024-02-12T02:56:00.627Z,78.74
2024-02-12T02:57:03.353Z,78.69
2024-02-12T02:58:06.206Z,78.76
2024-02-12T02:59:11.345Z,78.73
2024-02-12T03:00:15.298Z,78.69
2024-02-12T03:01:24.210Z,78.70
2024-02-12T03:02:26.960Z,78.68
2024-02-12T03:03:30.539Z,78.57
2024-02-12T03:04:35.990Z,78.61
2024-02-12T03:05:39.396Z,78.63
2024-02-12T03:06:43.503Z,78.56
2024-02-12T03:07:50.014Z,78.55
2024-02-12T03:08:52.791Z,78.53
2024-02-12T03:09:57.405Z,78.39
2024-02-12T03:11:00.446Z,78.35
2024-02-12T03:12:03.743Z,78.39
2024-02-12T03:13:09.402Z,78.38
2024-02-12T03:14:12.208Z,78.42
2024-02-12T03:15:16.894Z,78.44
2024-02-12T03:16:20.938Z,78.48
2024-02-12T03:17:24.439Z,78.47
2024-02-12T03:18:27.715Z,78.48
2024-02-12T03:19:30.649Z,78.55
2024-02-12T03:20:34.474Z,78.51
2024-02-12T03:21:37.596Z,78.58
2024-02-12T03:22:42.115Z,78.69
2024-02-12T03:23:44.864Z,78.68
2024-02-12T03:24:47.659Z,78.70
2024-02-12T03:25:50.417Z,78.64
2024-02-12T03:26:54.067Z,78.57
2024-02-12T03:27:59.147Z,78.50
2024-02-12T03:29:02.645Z,78.52
2024-02-12T03:30:09.763Z,78.59
2024-02-12T03:31:13.618Z,78.61
2024-02-12T03:32:16.457Z,78.63
2024-02-12T03:33:19.299Z,78.66
2024-02-12T03:34:22.121Z,78.68
2024-02-12T03:35:24.987Z,78.69
2024-02-12T03:36:28.154Z,78.74
2024-02-12T03:37:30.913Z,78.73
2024-02-12T03:38:34.156Z,78.71
2024-02-12T03:39:36.931Z,78.70
2024-02-12T03:40:39.767Z,78.76
2024-02-12T03:41:42.632Z,78.73
2024-02-12T03:42:48.059Z,78.75
2024-02-12T03:43:50.852Z,78.83
2024-02-12T03:44:53.631Z,78.90
2024-02-12T03:45:58.495Z,78.97
2024-02-12T03:47:01.803Z,78.95
2024-02-12T03:48:30.417Z,78.94
2024-02-12T03:49:51.819Z,78.97
2024-02-12T03:51:13.159Z,78.97
2024-02-12T03:52:54.070Z,78.94
2024-02-12T03:54:15.739Z,79.03
2024-02-12T03:55:38.286Z,78.97
2024-02-12T03:56:59.407Z,78.94
2024-02-12T03:58:20.518Z,78.98
2024-02-12T03:59:42.116Z,79.00
2024-02-12T04:00:44.980Z,79.06
2024-02-12T04:01:47.738Z,79.08
2024-02-12T04:02:50.768Z,79.08
2024-02-12T04:03:53.545Z,79.07
2024-02-12T04:04:56.895Z,79.06
2024-02-12T04:06:00.398Z,79.07
2024-02-12T04:07:04.586Z,79.07
2024-02-12T04:08:07.719Z,79.06
2024-02-12T04:09:12.159Z,79.00
2024-02-12T04:10:14.991Z,78.95
2024-02-12T04:11:18.169Z,78.93
2024-02-12T04:12:21.083Z,78.93
2024-02-12T04:13:24.818Z,78.95
2024-02-12T04:14:27.663Z,78.88
2024-02-12T04:15:30.737Z,78.91
2024-02-12T04:16:33.487Z,78.84
2024-02-12T04:17:36.594Z,78.82
2024-02-12T04:18:44.359Z,78.87
2024-02-12T04:19:50.643Z,78.90
2024-02-12T04:20:53.784Z,78.88
2024-02-12T04:21:56.879Z,78.84
2024-02-12T04:22:59.787Z,78.87
2024-02-12T04:24:05.600Z,78.86
2024-02-12T04:25:12.595Z,78.90
2024-02-12T04:26:15.915Z,79.00
2024-02-12T04:27:21.744Z,78.97
2024-02-12T04:28:24.555Z,78.99
2024-02-12T04:29:29.222Z,78.96
2024-02-12T04:30:32.290Z,78.96
2024-02-12T04:31:38.605Z,78.96
2024-02-12T04:32:41.977Z,78.95
2024-02-12T04:33:46.589Z,78.90
2024-02-12T04:34:50.780Z,78.90
2024-02-12T04:35:53.584Z,78.89
2024-02-12T04:37:00.420Z,78.94
2024-02-12T04:38:03.954Z,78.98
2024-02-12T04:39:06.759Z,79.06
2024-02-12T04:40:10.134Z,79.04
2024-02-12T04:41:14.810Z,79.02
2024-02-12T04:42:18.353Z,79.05
2024-02-12T04:43:21.672Z,79.08
2024-02-12T04:44:26.422Z,79.05
2024-02-12T04:45:29.186Z,79.03
2024-02-12T04:46:31.924Z,79.04
2024-02-12T04:47:35.379Z,78.99
2024-02-12T04:48:39.986Z,79.04
2024-02-12T04:49:42.766Z,79.09
2024-02-12T04:50:46.251Z,79.10
2024-02-12T04:51:50.427Z,79.15
2024-02-12T04:52:53.690Z,79.07
2024-02-12T04:53:56.462Z,79.22
2024-02-12T04:54:59.677Z,79.20
2024-02-12T04:56:05.674Z,79.05
2024-02-12T04:57:08.615Z,79.04
2024-02-12T04:58:11.457Z,79.01
2024-02-12T04:59:18.981Z,78.95
2024-02-12T05:00:22.036Z,78.98
2024-02-12T05:01:25.294Z,78.98
2024-02-12T05:02:28.870Z,78.95
2024-02-12T05:03:31.744Z,78.91
2024-02-12T05:04:35.025Z,78.89
2024-02-12T05:05:37.890Z,78.84
2024-02-12T05:06:40.889Z,78.84
2024-02-12T05:07:44.477Z,78.91
2024-02-12T05:08:48.695Z,78.85
2024-02-12T05:09:52.623Z,78.86
2024-02-12T05:10:57.562Z,78.89
2024-02-12T05:12:00.289Z,78.92
2024-02-12T05:13:03.062Z,78.95
2024-02-12T05:14:05.952Z,79.02
2024-02-12T05:15:11.863Z,79.07
2024-02-12T05:16:16.242Z,79.07
2024-02-12T05:17:25.885Z,79.07
2024-02-12T05:18:46.996Z,79.09
2024-02-12T05:20:08.185Z,79.06
2024-02-12T05:21:33.404Z,79.10
2024-02-12T05:22:36.968Z,78.99
2024-02-12T05:23:40.033Z,78.99
2024-02-12T05:24:42.836Z,78.99
2024-02-12T05:25:46.990Z,79.02
2024-02-12T05:26:49.734Z,78.97
2024-02-12T05:27:52.496Z,78.92
2024-02-12T05:28:55.577Z,78.96
2024-02-12T05:29:58.472Z,78.95
2024-02-12T05:31:01.462Z,78.93
2024-02-12T05:32:04.329Z,78.95
2024-02-12T05:33:10.476Z,78.88
2024-02-12T05:34:17.811Z,78.95
2024-02-12T05:35:21.245Z,78.83
2024-02-12T05:36:24.469Z,78.92
2024-02-12T05:37:27.281Z,79.04
2024-02-12T05:38:30.156Z,79.10
2024-02-12T05:39:36.039Z,79.10
2024-02-12T05:40:39.739Z,79.08
2024-02-12T05:41:43.135Z,79.09
2024-02-12T05:42:46.021Z,79.07
2024-02-12T05:43:50.840Z,79.08
2024-02-12T05:44:53.732Z,79.20
2024-02-12T05:45:56.812Z,79.11
2024-02-12T05:47:00.010Z,79.11
2024-02-12T05:48:03.101Z,79.10
2024-02-12T05:49:08.608Z,79.10
2024-02-12T05:50:11.646Z,79.08
2024-02-12T05:51:14.454Z,79.04
2024-02-12T05:52:17.812Z,79.03
2024-02-12T05:53:21.140Z,78.97
2024-02-12T05:54:23.953Z,78.95
2024-02-12T05:55:26.749Z,78.90
2024-02-12T05:56:30.933Z,78.90
2024-02-12T05:57:33.702Z,78.89
2024-02-12T05:58:37.568Z,78.85
2024-02-12T05:59:40.921Z,78.90
2024-02-12T06:00:47.565Z,78.89
2024-02-12T06:01:50.289Z,78.90
2024-02-12T06:02:52.997Z,78.93
2024-02-12T06:03:55.972Z,78.89
2024-02-12T06:05:00.274Z,78.87
2024-02-12T06:06:03.522Z,78.85
2024-02-12T06:07:07.147Z,78.84
2024-02-12T06:08:10.514Z,78.84
2024-02-12T06:09:15.249Z,78.83
2024-02-12T06:10:19.454Z,78.83
2024-02-12T06:11:23.025Z,78.82
2024-02-12T06:12:25.899Z,78.83
2024-02-12T06:13:29.153Z,78.94
2024-02-12T06:14:32.177Z,79.04
2024-02-12T06:15:35.445Z,79.04
2024-02-12T06:16:39.870Z,79.04
2024-02-12T06:17:42.659Z,79.06
2024-02-12T06:18:46.070Z,79.02
2024-02-12T06:19:51.628Z,79.01
2024-02-12T06:20:55.700Z,78.98
2024-02-12T06:21:58.721Z,78.88
2024-02-12T06:23:01.560Z,78.85
2024-02-12T06:24:05.900Z,78.84
2024-02-12T06:25:10.533Z,78.84
2024-02-12T06:26:19.789Z,78.79
2024-02-12T06:27:23.718Z,78.84
2024-02-12T06:28:26.701Z,78.87
2024-02-12T06:29:29.748Z,78.89
2024-02-12T06:30:32.619Z,78.93
2024-02-12T06:31:35.546Z,78.89
2024-02-12T06:32:38.381Z,78.91
2024-02-12T06:33:41.391Z,78.88
2024-02-12T06:34:48.881Z,78.92
2024-02-12T06:35:54.434Z,78.89
2024-02-12T06:36:57.852Z,78.92
2024-02-12T06:38:04.913Z,78.92
2024-02-12T06:39:07.995Z,79.01
2024-02-12T06:40:14.326Z,79.01
2024-02-12T06:41:17.588Z,78.97
2024-02-12T06:42:20.518Z,78.91
2024-02-12T06:43:23.392Z,78.90
2024-02-12T06:44:26.214Z,78.95
2024-02-12T06:45:29.025Z,78.95
2024-02-12T06:46:31.878Z,78.95
2024-02-12T06:47:34.779Z,78.95
2024-02-12T06:48:37.729Z,78.96
2024-02-12T06:49:42.579Z,79.00
2024-02-12T06:50:45.476Z,79.03
2024-02-12T06:51:49.923Z,79.01
2024-02-12T06:52:53.290Z,78.98
2024-02-12T06:53:56.123Z,78.94
2024-02-12T06:54:58.981Z,78.93
2024-02-12T06:56:04.539Z,78.93
2024-02-12T06:57:07.323Z,78.88
2024-02-12T06:58:12.985Z,78.81
2024-02-12T06:59:16.203Z,78.82
2024-02-12T07:00:19.378Z,78.82
2024-02-12T07:01:22.194Z,78.82
2024-02-12T07:02:25.194Z,78.80
2024-02-12T07:03:28.125Z,78.81
2024-02-12T07:04:30.869Z,78.81
2024-02-12T07:05:34.002Z,78.85
2024-02-12T07:06:37.162Z,78.90
2024-02-12T07:07:41.604Z,78.88
2024-02-12T07:08:44.868Z,78.85
2024-02-12T07:09:48.360Z,78.90
2024-02-12T07:10:51.073Z,78.90
2024-02-12T07:11:54.257Z,78.92
2024-02-12T07:12:57.124Z,78.90
2024-02-12T07:14:00.013Z,78.89
2024-02-12T07:15:02.987Z,78.90
2024-02-12T07:16:06.059Z,78.92
2024-02-12T07:17:08.942Z,79.00
2024-02-12T07:18:11.797Z,78.97
2024-02-12T07:19:14.739Z,78.91
2024-02-12T07:20:17.577Z,78.89
2024-02-12T07:21:20.441Z,78.88
2024-02-12T07:22:24.056Z,78.90
2024-02-12T07:23:27.348Z,78.90
2024-02-12T07:24:30.911Z,78.88
2024-02-12T07:25:34.124Z,78.84
2024-02-12T07:26:37.136Z,78.90
2024-02-12T07:27:40.005Z,78.90
2024-02-12T07:28:44.201Z,78.91
2024-02-12T07:29:47.712Z,78.88
2024-02-12T07:30:52.835Z,78.85
2024-02-12T07:31:55.638Z,78.87
2024-02-12T07:33:01.615Z,78.88
2024-02-12T07:34:05.728Z,78.87
2024-02-12T07:35:11.224Z,78.95
2024-02-12T07:36:14.677Z,79.02
2024-02-12T07:37:18.857Z,79.09
2024-02-12T07:38:24.228Z,79.11
2024-02-12T07:39:26.940Z,79.11
2024-02-12T07:40:34.631Z,79.07
2024-02-12T07:41:43.126Z,79.03
2024-02-12T07:42:47.184Z,79.07
2024-02-12T07:43:49.969Z,79.05
2024-02-12T07:44:52.781Z,79.06
2024-02-12T07:45:56.329Z,79.11
2024-02-12T07:46:59.917Z,79.17
2024-02-12T07:48:03.489Z,79.23
2024-02-12T07:49:08.221Z,79.25
2024-02-12T07:50:12.112Z,79.22
2024-02-12T07:51:17.152Z,79.27
2024-02-12T07:52:20.451Z,79.26
2024-02-12T07:53:29.450Z,79.26
2024-02-12T07:54:36.421Z,79.28
2024-02-12T07:55:39.350Z,79.33
2024-02-12T07:56:47.814Z,79.37
2024-02-12T07:57:53.554Z,79.39
2024-02-12T07:58:58.257Z,79.51
2024-02-12T08:00:02.252Z,79.55
2024-02-12T08:01:05.330Z,79.56
2024-02-12T08:02:09.590Z,79.60
2024-02-12T08:03:12.378Z,79.64
2024-02-12T08:04:15.298Z,79.53
2024-02-12T08:05:18.235Z,79.48
2024-02-12T08:06:21.216Z,79.27
2024-02-12T08:07:32.409Z,79.29
2024-02-12T08:08:47.365Z,79.25
2024-02-12T08:09:50.246Z,79.30
2024-02-12T08:10:53.130Z,79.20
2024-02-12T08:11:56.602Z,78.96
2024-02-12T08:12:59.486Z,78.89
2024-02-12T08:14:02.268Z,78.78
2024-02-12T08:15:08.645Z,78.56
2024-02-12T08:16:11.620Z,78.49
2024-02-12T08:17:26.951Z,78.50
2024-02-12T08:18:31.557Z,78.66
2024-02-12T08:19:35.029Z,78.72
2024-02-12T08:20:38.242Z,78.73
2024-02-12T08:21:41.200Z,78.77
2024-02-12T08:22:44.890Z,78.83
2024-02-12T08:23:47.826Z,78.95
2024-02-12T08:24:51.428Z,78.58
2024-02-12T08:25:55.285Z,78.32
2024-02-12T08:26:58.247Z,78.38
2024-02-12T08:28:01.499Z,78.45
2024-02-12T08:29:04.517Z,78.45
2024-02-12T08:30:09.227Z,78.53
2024-02-12T08:31:13.600Z,78.62
2024-02-12T08:32:16.922Z,78.69
2024-02-12T08:33:19.870Z,78.81
2024-02-12T08:34:22.670Z,78.79
2024-02-12T08:35:25.581Z,78.90
2024-02-12T08:36:30.009Z,78.94
2024-02-12T08:37:32.790Z,79.02
2024-02-12T08:38:35.658Z,79.11
2024-02-12T08:39:43.679Z,79.19
2024-02-12T08:40:46.752Z,79.17
2024-02-12T08:41:50.133Z,79.24
2024-02-12T08:42:54.043Z,79.33
2024-02-12T08:43:58.547Z,79.30
2024-02-12T08:45:02.544Z,79.33
2024-02-12T08:46:05.459Z,78.89
2024-02-12T08:47:08.333Z,78.88
2024-02-12T08:48:11.126Z,78.96
2024-02-12T08:49:14.024Z,78.95
2024-02-12T08:50:17.803Z,78.55
2024-02-12T08:51:21.517Z,78.48
2024-02-12T08:52:24.344Z,78.53
2024-02-12T08:53:27.129Z,78.41
2024-02-12T08:54:33.132Z,78.30
2024-02-12T08:55:35.941Z,78.29
2024-02-12T08:56:44.454Z,78.32
2024-02-12T08:57:47.478Z,78.23
2024-02-12T08:58:50.855Z,77.62
2024-02-12T08:59:54.956Z,77.73
2024-02-12T09:00:57.959Z,78.63
2024-02-12T09:02:01.002Z,78.39
2024-02-12T09:03:04.923Z,80.53
2024-02-12T09:04:11.631Z,80.20
2024-02-12T09:05:14.705Z,79.55
2024-02-12T09:06:18.913Z,79.07
2024-02-12T09:07:22.625Z,78.60
2024-02-12T09:08:29.377Z,78.44
2024-02-12T09:09:32.296Z,78.23
2024-02-12T09:10:35.801Z,78.15
2024-02-12T09:11:39.382Z,78.12
2024-02-12T09:12:52.066Z,78.01
2024-02-12T09:14:03.142Z,78.64
2024-02-12T09:15:10.729Z,78.00
2024-02-12T09:16:15.416Z,78.81
2024-02-12T09:17:18.237Z,78.28
2024-02-12T09:18:21.417Z,78.23
2024-02-12T09:19:24.377Z,77.16
2024-02-12T09:20:27.375Z,76.73
2024-02-12T09:21:30.751Z,76.86
2024-02-12T09:22:36.266Z,76.88
2024-02-12T09:23:39.468Z,76.86
2024-02-12T09:24:44.087Z,76.77
2024-02-12T09:25:46.999Z,76.87
2024-02-12T09:26:49.727Z,77.10
2024-02-12T09:27:52.610Z,77.04
2024-02-12T09:28:56.493Z,77.19
2024-02-12T09:30:00.553Z,77.14
2024-02-12T09:31:03.417Z,77.15
2024-02-12T09:32:06.337Z,77.15
2024-02-12T09:33:09.228Z,77.24
2024-02-12T09:34:12.153Z,77.27
2024-02-12T09:35:17.913Z,77.27
2024-02-12T09:36:21.014Z,77.25
2024-02-12T09:37:24.050Z,77.25
2024-02-12T09:38:27.726Z,77.26
2024-02-12T09:39:31.812Z,77.17
2024-02-12T09:40:35.613Z,77.37
2024-02-12T09:41:40.139Z,77.03
2024-02-12T09:42:43.179Z,76.97
2024-02-12T09:43:48.806Z,76.55
2024-02-12T09:44:54.223Z,76.49
2024-02-12T09:45:57.279Z,76.55
2024-02-12T09:47:08.807Z,76.55
2024-02-12T09:48:14.374Z,76.36
2024-02-12T09:49:18.709Z,76.24
2024-02-12T09:50:24.810Z,75.88
2024-02-12T09:51:29.463Z,76.08
2024-02-12T09:52:32.254Z,76.16
2024-02-12T09:53:36.833Z,76.22
2024-02-12T09:54:40.950Z,76.22
2024-02-12T09:55:47.412Z,76.01
2024-02-12T09:56:50.868Z,75.89
2024-02-12T09:57:55.413Z,75.84
2024-02-12T09:58:58.312Z,75.89
2024-02-12T10:00:01.168Z,76.18
2024-02-12T10:01:04.596Z,76.21
2024-02-12T10:02:07.903Z,76.25
2024-02-12T10:03:12.738Z,76.14
2024-02-12T10:04:15.722Z,75.90
2024-02-12T10:05:23.860Z,76.04
2024-02-12T10:06:27.000Z,76.12
2024-02-12T10:07:38.771Z,76.19
2024-02-12T10:08:41.718Z,76.10
2024-02-12T10:09:44.570Z,75.95
2024-02-12T10:10:47.418Z,75.93
2024-02-12T10:11:50.584Z,76.02
2024-02-12T10:12:56.332Z,75.62
2024-02-12T10:14:03.097Z,75.13
2024-02-12T10:15:11.649Z,75.63
2024-02-12T10:16:16.172Z,75.75
2024-02-12T10:17:20.996Z,75.50
2024-02-12T10:18:23.879Z,75.54
2024-02-12T10:19:26.667Z,75.92
2024-02-12T10:20:29.495Z,75.82
2024-02-12T10:21:33.555Z,75.83
2024-02-12T10:22:36.276Z,75.79
2024-02-12T10:23:39.094Z,75.89
2024-02-12T10:24:44.085Z,76.30
2024-02-12T10:25:53.421Z,75.92
2024-02-12T10:26:56.547Z,75.90
2024-02-12T10:28:00.791Z,76.16
2024-02-12T10:29:03.737Z,76.09
2024-02-12T10:30:10.816Z,76.02
2024-02-12T10:31:14.394Z,76.19
2024-02-12T10:32:17.472Z,76.03
2024-02-12T10:33:22.560Z,75.82
2024-02-12T10:34:31.023Z,75.57
2024-02-12T10:35:39.075Z,75.60
2024-02-12T10:36:49.767Z,75.56
2024-02-12T10:37:54.183Z,75.57
2024-02-12T10:38:58.260Z,75.89
2024-02-12T10:40:10.950Z,75.87
2024-02-12T10:41:33.750Z,75.71
2024-02-12T10:42:42.554Z,75.64
2024-02-12T10:43:46.175Z,75.55
2024-02-12T10:44:51.892Z,75.77
2024-02-12T10:45:55.682Z,75.59
2024-02-12T10:46:59.236Z,74.89
2024-02-12T10:48:04.661Z,74.93
2024-02-12T10:49:08.545Z,75.02
2024-02-12T10:50:15.651Z,74.93
2024-02-12T10:51:19.688Z,74.58
2024-02-12T10:52:24.690Z,75.24
2024-02-12T10:53:31.901Z,75.41
2024-02-12T10:54:35.243Z,75.01
2024-02-12T10:55:40.302Z,75.05
2024-02-12T10:56:43.875Z,74.95
2024-02-12T10:57:47.364Z,75.07
2024-02-12T10:58:50.739Z,75.00
2024-02-12T11:00:03.775Z,75.15
2024-02-12T11:01:07.837Z,75.11
2024-02-12T11:02:16.061Z,75.08
2024-02-12T11:03:19.021Z,76.52
2024-02-12T11:04:29.379Z,76.02
2024-02-12T11:05:33.141Z,74.93
2024-02-12T11:06:44.852Z,74.95
2024-02-12T11:07:47.980Z,75.08
2024-02-12T11:08:52.241Z,74.81
2024-02-12T11:10:00.446Z,74.70
2024-02-12T11:11:05.866Z,74.74
2024-02-12T11:12:21.763Z,74.78
2024-02-12T11:13:24.533Z,74.83
2024-02-12T11:14:35.347Z,74.46
2024-02-12T11:15:38.165Z,74.69
2024-02-12T11:16:43.068Z,74.68
2024-02-12T11:17:46.042Z,74.44
2024-02-12T11:19:01.415Z,74.41
2024-02-12T11:20:08.575Z,74.49
2024-02-12T11:21:19.034Z,74.80
2024-02-12T11:22:32.412Z,74.61
2024-02-12T11:23:36.988Z,74.34
2024-02-12T11:24:42.145Z,74.38
2024-02-12T11:25:54.530Z,74.38
2024-02-12T11:27:02.051Z,74.65
2024-02-12T11:28:05.429Z,74.58
2024-02-12T11:29:08.843Z,74.93
2024-02-12T11:30:12.061Z,75.19
2024-02-12T11:31:16.148Z,75.14
2024-02-12T11:32:24.489Z,75.01
2024-02-12T11:33:28.261Z,74.98
2024-02-12T11:34:34.755Z,75.03
2024-02-12T11:35:37.569Z,74.90
2024-02-12T11:36:41.032Z,74.90
2024-02-12T11:38:02.286Z,74.70
2024-02-12T11:39:06.307Z,74.73
2024-02-12T11:40:16.042Z,74.72
2024-02-12T11:41:19.057Z,74.55
2024-02-12T11:42:24.121Z,74.36
2024-02-12T11:43:26.870Z,74.29
2024-02-12T11:44:30.841Z,74.43
2024-02-12T11:45:34.522Z,74.41
2024-02-12T11:46:40.685Z,74.42
2024-02-12T11:47:43.552Z,74.39
2024-02-12T11:48:46.524Z,74.26
2024-02-12T11:49:49.476Z,73.70
2024-02-12T11:50:55.469Z,74.10
2024-02-12T11:51:58.302Z,74.38
2024-02-12T11:53:01.803Z,74.30
2024-02-12T11:54:05.349Z,74.42
2024-02-12T11:55:09.694Z,74.38
2024-02-12T11:56:12.577Z,74.20
2024-02-12T11:57:15.487Z,74.16
2024-02-12T11:58:19.277Z,74.47
2024-02-12T11:59:24.174Z,73.67
2024-02-12T12:00:26.984Z,73.55
2024-02-12T12:01:33.508Z,73.45
2024-02-12T12:02:36.445Z,73.31
2024-02-12T12:03:40.269Z,73.38
2024-02-12T12:04:46.009Z,72.94
2024-02-12T12:05:51.658Z,72.76
2024-02-12T12:06:54.501Z,72.55
2024-02-12T12:07:59.502Z,72.34
2024-02-12T12:09:04.945Z,72.64
2024-02-12T12:10:08.102Z,72.70
2024-02-12T12:11:13.068Z,72.95
2024-02-12T12:12:26.374Z,72.74
2024-02-12T12:13:29.067Z,72.77
2024-02-12T12:14:37.873Z,72.66
2024-02-12T12:15:40.749Z,72.85
2024-02-12T12:17:27.154Z,72.79
2024-02-12T12:18:06.937Z,72.59
2024-02-12T12:19:11.982Z,72.25
2024-02-12T12:20:15.674Z,71.94
2024-02-12T12:21:21.695Z,71.92
2024-02-12T12:22:25.312Z,72.13
2024-02-12T12:23:28.967Z,72.14
2024-02-12T12:24:33.158Z,72.14
2024-02-12T12:25:35.901Z,72.01
2024-02-12T12:26:38.696Z,72.16
2024-02-12T12:27:42.042Z,72.35
2024-02-12T12:28:44.975Z,72.22
2024-02-12T12:29:50.393Z,72.09
2024-02-12T12:30:53.313Z,72.18
2024-02-12T12:31:56.103Z,72.46
2024-02-12T12:32:59.005Z,72.74
2024-02-12T12:34:01.925Z,72.75
2024-02-12T12:35:06.182Z,72.56
2024-02-12T12:36:16.129Z,72.20
2024-02-12T12:37:20.542Z,72.11
2024-02-12T12:38:24.235Z,71.34
2024-02-12T12:39:28.512Z,70.21
2024-02-12T12:40:31.333Z,70.71
2024-02-12T12:41:35.658Z,70.73
2024-02-12T12:42:42.841Z,70.05
2024-02-12T12:43:45.635Z,70.36
2024-02-12T12:44:49.106Z,70.25
2024-02-12T12:45:55.087Z,70.43
2024-02-12T12:46:57.949Z,70.10
2024-02-12T12:48:00.912Z,69.92
2024-02-12T12:49:04.540Z,70.26
2024-02-12T12:50:10.820Z,70.08
2024-02-12T12:51:16.642Z,69.88
2024-02-12T12:52:19.531Z,70.24
2024-02-12T12:53:22.662Z,69.93
2024-02-12T12:54:25.437Z,69.81
2024-02-12T12:55:28.329Z,69.91
2024-02-12T12:56:31.166Z,69.97
2024-02-12T12:57:33.957Z,69.48
2024-02-12T12:58:37.521Z,69.37
2024-02-12T12:59:40.396Z,69.65
2024-02-12T13:00:45.237Z,69.56
2024-02-12T13:01:48.352Z,69.57
2024-02-12T13:03:00.936Z,69.47
2024-02-12T13:04:04.996Z,68.75
2024-02-12T13:05:09.727Z,68.87
2024-02-12T13:06:12.692Z,69.46
2024-02-12T13:07:21.728Z,69.62
2024-02-12T13:08:26.943Z,69.56
2024-02-12T13:09:32.544Z,69.22
2024-02-12T13:10:41.794Z,69.40
2024-02-12T13:11:45.026Z,69.56
2024-02-12T13:12:48.426Z,69.20
2024-02-12T13:13:55.363Z,69.32
2024-02-12T13:15:00.650Z,69.60
2024-02-12T13:16:07.596Z,69.79
2024-02-12T13:17:10.350Z,69.97
2024-02-12T13:18:15.440Z,69.94
2024-02-12T13:19:18.282Z,70.15
2024-02-12T13:20:23.865Z,70.16
2024-02-12T13:21:26.894Z,70.46
2024-02-12T13:22:30.575Z,70.41
2024-02-12T13:23:33.419Z,70.45
2024-02-12T13:24:37.253Z,70.03
2024-02-12T13:25:40.215Z,69.86
2024-02-12T13:26:44.295Z,69.21
2024-02-12T13:27:47.096Z,69.19
2024-02-12T13:28:50.395Z,69.13
2024-02-12T13:29:53.394Z,68.80
2024-02-12T13:30:59.100Z,68.82
2024-02-12T13:32:04.359Z,69.38
2024-02-12T13:33:10.066Z,69.48
2024-02-12T13:34:13.583Z,69.52
2024-02-12T13:35:17.746Z,69.38
2024-02-12T13:36:20.530Z,69.37
2024-02-12T13:37:24.524Z,69.34
2024-02-12T13:38:27.337Z,69.16
2024-02-12T13:39:30.538Z,69.09
2024-02-12T13:40:35.328Z,69.21
2024-02-12T13:41:42.365Z,69.35
2024-02-12T13:42:49.266Z,69.55
2024-02-12T13:43:52.168Z,69.49
2024-02-12T13:44:57.213Z,69.50
2024-02-12T13:46:03.873Z,69.78
2024-02-12T13:47:06.864Z,69.47
2024-02-12T13:48:14.268Z,69.34
2024-02-12T13:49:17.804Z,69.47
2024-02-12T13:50:21.593Z,69.23
2024-02-12T13:51:24.553Z,69.33
2024-02-12T13:52:27.371Z,69.41
2024-02-12T13:53:30.265Z,69.48